sensor_id;sensor_type;location;lat;lon;timestamp;P1;durP1;ratioP1;P2;durP2;ratioP2
43807;SDS011;29438;50.664;10.098;2023-11-21T00:01:35;5.15;;;2.00;;
43807;SDS011;29438;50.664;10.098;2023-11-21T00:04:01;5.85;;;2.25;;
43807;SDS011;29438;50.664;10.098;2023-11-21T00:06:27;5.40;;;2.30;;
43807;SDS011;29438;50.664;10.098;2023-11-21T00:08:52;5.53;;;2.38;;
43807;SDS011;29438;50.664;10.098;2023-11-21T00:11:18;6.45;;;2.13;;
43807;SDS011;29438;50.664;10.098;2023-11-21T00:13:43;5.70;;;2.90;;
43807;SDS011;29438;50.664;10.098;2023-11-21T00:16:10;8.00;;;3.00;;
43807;SDS011;29438;50.664;10.098;2023-11-21T00:18:36;6.00;;;2.80;;
43807;SDS011;29438;50.664;10.098;2023-11-21T00:21:01;5.82;;;2.63;;
43807;SDS011;29438;50.664;10.098;2023-11-21T00:23:28;6.05;;;2.50;;
43807;SDS011;29438;50.664;10.098;2023-11-21T00:25:54;5.15;;;2.55;;
43807;SDS011;29438;50.664;10.098;2023-11-21T00:28:19;6.22;;;2.92;;
43807;SDS011;29438;50.664;10.098;2023-11-21T00:30:45;8.48;;;2.97;;
43807;SDS011;29438;50.664;10.098;2023-11-21T00:33:10;7.40;;;2.70;;
43807;SDS011;29438;50.664;10.098;2023-11-21T00:35:36;9.35;;;2.88;;
43807;SDS011;29438;50.664;10.098;2023-11-21T00:38:01;8.57;;;3.00;;
43807;SDS011;29438;50.664;10.098;2023-11-21T00:40:28;6.82;;;2.58;;
43807;SDS011;29438;50.664;10.098;2023-11-21T00:42:54;5.53;;;2.58;;
43807;SDS011;29438;50.664;10.098;2023-11-21T00:45:21;6.50;;;2.72;;
43807;SDS011;29438;50.664;10.098;2023-11-21T00:47:46;6.70;;;3.15;;
43807;SDS011;29438;50.664;10.098;2023-11-21T00:50:12;5.32;;;2.72;;
43807;SDS011;29438;50.664;10.098;2023-11-21T00:52:37;6.55;;;3.05;;
43807;SDS011;29438;50.664;10.098;2023-11-21T00:55:03;5.75;;;2.85;;
43807;SDS011;29438;50.664;10.098;2023-11-21T00:57:30;8.45;;;3.10;;
43807;SDS011;29438;50.664;10.098;2023-11-21T00:59:56;5.93;;;2.83;;
43807;SDS011;29438;50.664;10.098;2023-11-21T01:02:21;7.78;;;2.90;;
43807;SDS011;29438;50.664;10.098;2023-11-21T01:04:47;6.35;;;2.80;;
43807;SDS011;29438;50.664;10.098;2023-11-21T01:07:12;5.78;;;2.83;;
43807;SDS011;29438;50.664;10.098;2023-11-21T01:09:38;7.55;;;3.38;;
43807;SDS011;29438;50.664;10.098;2023-11-21T01:12:04;6.63;;;3.20;;
43807;SDS011;29438;50.664;10.098;2023-11-21T01:14:29;6.72;;;2.83;;
43807;SDS011;29438;50.664;10.098;2023-11-21T01:16:55;8.98;;;3.05;;
43807;SDS011;29438;50.664;10.098;2023-11-21T01:19:21;7.22;;;3.22;;
43807;SDS011;29438;50.664;10.098;2023-11-21T01:21:46;5.72;;;2.90;;
43807;SDS011;29438;50.664;10.098;2023-11-21T01:24:12;6.75;;;3.00;;
43807;SDS011;29438;50.664;10.098;2023-11-21T01:26:37;6.32;;;2.80;;
43807;SDS011;29438;50.664;10.098;2023-11-21T01:29:03;7.93;;;2.75;;
43807;SDS011;29438;50.664;10.098;2023-11-21T01:31:29;7.32;;;3.58;;
43807;SDS011;29438;50.664;10.098;2023-11-21T01:33:55;6.93;;;3.10;;
43807;SDS011;29438;50.664;10.098;2023-11-21T01:36:21;7.65;;;2.67;;
43807;SDS011;29438;50.664;10.098;2023-11-21T01:38:47;7.07;;;2.65;;
43807;SDS011;29438;50.664;10.098;2023-11-21T01:41:15;7.07;;;2.75;;
43807;SDS011;29438;50.664;10.098;2023-11-21T01:43:41;6.82;;;2.83;;
43807;SDS011;29438;50.664;10.098;2023-11-21T01:46:07;8.93;;;2.90;;
43807;SDS011;29438;50.664;10.098;2023-11-21T01:48:34;7.03;;;2.65;;
43807;SDS011;29438;50.664;10.098;2023-11-21T01:51:00;9.77;;;3.10;;
43807;SDS011;29438;50.664;10.098;2023-11-21T01:53:26;6.43;;;2.92;;
43807;SDS011;29438;50.664;10.098;2023-11-21T01:55:53;7.93;;;2.70;;
43807;SDS011;29438;50.664;10.098;2023-11-21T01:58:20;8.77;;;2.53;;
43807;SDS011;29438;50.664;10.098;2023-11-21T02:00:46;10.98;;;2.90;;
43807;SDS011;29438;50.664;10.098;2023-11-21T02:03:15;5.95;;;2.75;;
43807;SDS011;29438;50.664;10.098;2023-11-21T02:05:41;6.68;;;2.72;;
43807;SDS011;29438;50.664;10.098;2023-11-21T02:08:07;8.82;;;2.65;;
43807;SDS011;29438;50.664;10.098;2023-11-21T02:10:34;8.32;;;2.70;;
43807;SDS011;29438;50.664;10.098;2023-11-21T02:13:01;5.45;;;2.35;;
43807;SDS011;29438;50.664;10.098;2023-11-21T02:15:27;7.57;;;3.03;;
43807;SDS011;29438;50.664;10.098;2023-11-21T02:17:54;7.18;;;2.50;;
43807;SDS011;29438;50.664;10.098;2023-11-21T02:20:22;5.50;;;2.45;;
43807;SDS011;29438;50.664;10.098;2023-11-21T02:22:50;8.38;;;2.58;;
43807;SDS011;29438;50.664;10.098;2023-11-21T02:25:22;4.77;;;2.27;;
43807;SDS011;29438;50.664;10.098;2023-11-21T02:27:54;6.97;;;2.90;;
43807;SDS011;29438;50.664;10.098;2023-11-21T02:30:24;8.30;;;2.92;;
43807;SDS011;29438;50.664;10.098;2023-11-21T02:32:50;6.72;;;2.78;;
43807;SDS011;29438;50.664;10.098;2023-11-21T02:35:19;7.32;;;2.40;;
43807;SDS011;29438;50.664;10.098;2023-11-21T02:37:48;9.52;;;3.10;;
43807;SDS011;29438;50.664;10.098;2023-11-21T02:40:14;6.85;;;3.25;;
43807;SDS011;29438;50.664;10.098;2023-11-21T02:42:45;8.23;;;3.17;;
43807;SDS011;29438;50.664;10.098;2023-11-21T02:45:12;8.18;;;2.92;;
43807;SDS011;29438;50.664;10.098;2023-11-21T02:47:39;9.07;;;3.30;;
43807;SDS011;29438;50.664;10.098;2023-11-21T02:50:05;11.32;;;3.63;;
43807;SDS011;29438;50.664;10.098;2023-11-21T02:52:33;10.13;;;3.70;;
43807;SDS011;29438;50.664;10.098;2023-11-21T02:55:00;9.32;;;3.42;;
43807;SDS011;29438;50.664;10.098;2023-11-21T02:57:26;9.57;;;3.53;;
43807;SDS011;29438;50.664;10.098;2023-11-21T02:59:51;9.07;;;3.22;;
43807;SDS011;29438;50.664;10.098;2023-11-21T03:02:17;7.82;;;3.10;;
43807;SDS011;29438;50.664;10.098;2023-11-21T03:04:43;9.82;;;2.90;;
43807;SDS011;29438;50.664;10.098;2023-11-21T03:07:09;5.70;;;2.58;;
43807;SDS011;29438;50.664;10.098;2023-11-21T03:09:35;8.18;;;2.70;;
43807;SDS011;29438;50.664;10.098;2023-11-21T03:12:01;9.23;;;3.15;;
43807;SDS011;29438;50.664;10.098;2023-11-21T03:14:27;10.45;;;2.90;;
43807;SDS011;29438;50.664;10.098;2023-11-21T03:16:52;7.53;;;3.08;;
43807;SDS011;29438;50.664;10.098;2023-11-21T03:19:18;9.25;;;3.13;;
43807;SDS011;29438;50.664;10.098;2023-11-21T03:21:43;9.90;;;3.00;;
43807;SDS011;29438;50.664;10.098;2023-11-21T03:24:09;9.55;;;2.97;;
43807;SDS011;29438;50.664;10.098;2023-11-21T03:26:34;7.22;;;2.70;;
43807;SDS011;29438;50.664;10.098;2023-11-21T03:29:00;7.60;;;2.35;;
43807;SDS011;29438;50.664;10.098;2023-11-21T03:31:25;6.53;;;2.40;;
43807;SDS011;29438;50.664;10.098;2023-11-21T03:33:51;7.28;;;2.25;;
43807;SDS011;29438;50.664;10.098;2023-11-21T03:36:19;6.47;;;2.15;;
43807;SDS011;29438;50.664;10.098;2023-11-21T03:38:44;7.93;;;2.70;;
43807;SDS011;29438;50.664;10.098;2023-11-21T03:41:10;7.45;;;2.85;;
43807;SDS011;29438;50.664;10.098;2023-11-21T03:43:36;7.90;;;2.60;;
43807;SDS011;29438;50.664;10.098;2023-11-21T03:46:02;6.68;;;2.50;;
43807;SDS011;29438;50.664;10.098;2023-11-21T03:48:28;7.80;;;2.53;;
43807;SDS011;29438;50.664;10.098;2023-11-21T03:50:53;6.47;;;2.55;;
43807;SDS011;29438;50.664;10.098;2023-11-21T03:53:19;9.82;;;2.50;;
43807;SDS011;29438;50.664;10.098;2023-11-21T03:55:44;7.30;;;2.40;;
43807;SDS011;29438;50.664;10.098;2023-11-21T03:58:10;8.35;;;2.47;;
43807;SDS011;29438;50.664;10.098;2023-11-21T04:00:36;8.05;;;2.75;;
43807;SDS011;29438;50.664;10.098;2023-11-21T04:03:01;8.70;;;2.53;;
43807;SDS011;29438;50.664;10.098;2023-11-21T04:05:27;8.32;;;2.70;;
43807;SDS011;29438;50.664;10.098;2023-11-21T04:07:53;10.27;;;3.15;;
43807;SDS011;29438;50.664;10.098;2023-11-21T04:10:18;19.80;;;7.97;;
43807;SDS011;29438;50.664;10.098;2023-11-21T04:12:44;10.30;;;2.90;;
43807;SDS011;29438;50.664;10.098;2023-11-21T04:15:10;9.25;;;2.40;;
43807;SDS011;29438;50.664;10.098;2023-11-21T04:17:38;8.77;;;2.90;;
43807;SDS011;29438;50.664;10.098;2023-11-21T04:20:04;11.07;;;3.85;;
43807;SDS011;29438;50.664;10.098;2023-11-21T04:22:33;13.45;;;5.28;;
43807;SDS011;29438;50.664;10.098;2023-11-21T04:25:01;13.27;;;4.65;;
43807;SDS011;29438;50.664;10.098;2023-11-21T04:27:27;9.77;;;3.80;;
43807;SDS011;29438;50.664;10.098;2023-11-21T04:29:52;13.32;;;3.92;;
43807;SDS011;29438;50.664;10.098;2023-11-21T04:32:18;10.80;;;3.50;;
43807;SDS011;29438;50.664;10.098;2023-11-21T04:34:43;8.02;;;3.00;;
43807;SDS011;29438;50.664;10.098;2023-11-21T04:37:09;9.02;;;3.25;;
43807;SDS011;29438;50.664;10.098;2023-11-21T04:39:35;9.95;;;3.45;;
43807;SDS011;29438;50.664;10.098;2023-11-21T04:42:01;12.57;;;4.55;;
43807;SDS011;29438;50.664;10.098;2023-11-21T04:44:27;10.65;;;4.20;;
43807;SDS011;29438;50.664;10.098;2023-11-21T04:46:52;9.70;;;3.97;;
43807;SDS011;29438;50.664;10.098;2023-11-21T04:49:18;10.93;;;4.30;;
43807;SDS011;29438;50.664;10.098;2023-11-21T04:51:43;13.57;;;4.15;;
43807;SDS011;29438;50.664;10.098;2023-11-21T04:54:09;11.20;;;5.13;;
43807;SDS011;29438;50.664;10.098;2023-11-21T04:56:35;12.98;;;5.07;;
43807;SDS011;29438;50.664;10.098;2023-11-21T04:59:00;11.02;;;4.68;;
43807;SDS011;29438;50.664;10.098;2023-11-21T05:01:26;11.05;;;4.47;;
43807;SDS011;29438;50.664;10.098;2023-11-21T05:03:52;10.27;;;4.90;;
43807;SDS011;29438;50.664;10.098;2023-11-21T05:06:17;13.38;;;5.07;;
43807;SDS011;29438;50.664;10.098;2023-11-21T05:08:43;11.63;;;5.18;;
43807;SDS011;29438;50.664;10.098;2023-11-21T05:11:09;12.52;;;4.85;;
43807;SDS011;29438;50.664;10.098;2023-11-21T05:13:35;15.13;;;4.88;;
43807;SDS011;29438;50.664;10.098;2023-11-21T05:16:01;12.13;;;4.65;;
43807;SDS011;29438;50.664;10.098;2023-11-21T05:18:29;12.68;;;4.63;;
43807;SDS011;29438;50.664;10.098;2023-11-21T05:20:55;12.00;;;4.25;;
43807;SDS011;29438;50.664;10.098;2023-11-21T05:23:20;9.32;;;3.53;;
43807;SDS011;29438;50.664;10.098;2023-11-21T05:25:46;10.18;;;4.05;;
43807;SDS011;29438;50.664;10.098;2023-11-21T05:28:12;10.27;;;3.55;;
43807;SDS011;29438;50.664;10.098;2023-11-21T05:30:38;8.07;;;3.60;;
43807;SDS011;29438;50.664;10.098;2023-11-21T05:33:04;10.30;;;3.47;;
43807;SDS011;29438;50.664;10.098;2023-11-21T05:35:30;11.05;;;3.58;;
43807;SDS011;29438;50.664;10.098;2023-11-21T05:37:56;9.90;;;3.65;;
43807;SDS011;29438;50.664;10.098;2023-11-21T05:40:21;9.93;;;3.67;;
43807;SDS011;29438;50.664;10.098;2023-11-21T05:42:47;9.50;;;3.45;;
43807;SDS011;29438;50.664;10.098;2023-11-21T05:45:13;13.20;;;3.88;;
43807;SDS011;29438;50.664;10.098;2023-11-21T05:47:41;15.00;;;3.90;;
43807;SDS011;29438;50.664;10.098;2023-11-21T05:50:11;10.30;;;3.80;;
43807;SDS011;29438;50.664;10.098;2023-11-21T05:52:39;9.10;;;3.40;;
43807;SDS011;29438;50.664;10.098;2023-11-21T05:55:06;10.40;;;3.85;;
43807;SDS011;29438;50.664;10.098;2023-11-21T05:57:35;9.52;;;3.60;;
43807;SDS011;29438;50.664;10.098;2023-11-21T06:00:02;10.15;;;4.35;;
43807;SDS011;29438;50.664;10.098;2023-11-21T06:02:41;11.82;;;4.32;;
43807;SDS011;29438;50.664;10.098;2023-11-21T06:05:07;11.88;;;3.88;;
43807;SDS011;29438;50.664;10.098;2023-11-21T06:07:33;9.93;;;3.28;;
43807;SDS011;29438;50.664;10.098;2023-11-21T06:10:00;12.55;;;4.18;;
43807;SDS011;29438;50.664;10.098;2023-11-21T06:12:27;12.00;;;4.97;;
43807;SDS011;29438;50.664;10.098;2023-11-21T06:14:53;10.77;;;5.05;;
43807;SDS011;29438;50.664;10.098;2023-11-21T06:17:20;10.88;;;4.60;;
43807;SDS011;29438;50.664;10.098;2023-11-21T06:19:46;11.82;;;4.13;;
43807;SDS011;29438;50.664;10.098;2023-11-21T06:22:12;9.20;;;4.07;;
43807;SDS011;29438;50.664;10.098;2023-11-21T06:24:37;9.13;;;3.80;;
43807;SDS011;29438;50.664;10.098;2023-11-21T06:27:03;9.07;;;4.30;;
43807;SDS011;29438;50.664;10.098;2023-11-21T06:29:30;10.43;;;4.20;;
43807;SDS011;29438;50.664;10.098;2023-11-21T06:31:56;10.75;;;4.00;;
43807;SDS011;29438;50.664;10.098;2023-11-21T06:34:23;9.18;;;3.92;;
43807;SDS011;29438;50.664;10.098;2023-11-21T06:36:49;11.73;;;4.03;;
43807;SDS011;29438;50.664;10.098;2023-11-21T06:39:14;10.10;;;3.95;;
43807;SDS011;29438;50.664;10.098;2023-11-21T06:41:41;11.75;;;4.43;;
43807;SDS011;29438;50.664;10.098;2023-11-21T06:44:08;10.48;;;3.63;;
43807;SDS011;29438;50.664;10.098;2023-11-21T06:46:33;12.07;;;4.00;;
43807;SDS011;29438;50.664;10.098;2023-11-21T06:48:59;11.88;;;4.00;;
43807;SDS011;29438;50.664;10.098;2023-11-21T06:51:25;11.90;;;3.97;;
43807;SDS011;29438;50.664;10.098;2023-11-21T06:53:50;15.15;;;3.75;;
43807;SDS011;29438;50.664;10.098;2023-11-21T06:56:19;11.10;;;3.40;;
43807;SDS011;29438;50.664;10.098;2023-11-21T06:58:45;8.75;;;3.25;;
43807;SDS011;29438;50.664;10.098;2023-11-21T07:01:11;8.77;;;3.63;;
43807;SDS011;29438;50.664;10.098;2023-11-21T07:03:40;14.25;;;4.10;;
43807;SDS011;29438;50.664;10.098;2023-11-21T07:06:06;9.30;;;3.40;;
43807;SDS011;29438;50.664;10.098;2023-11-21T07:08:32;11.48;;;4.63;;
43807;SDS011;29438;50.664;10.098;2023-11-21T07:10:58;12.85;;;5.00;;
43807;SDS011;29438;50.664;10.098;2023-11-21T07:13:24;11.45;;;4.00;;
43807;SDS011;29438;50.664;10.098;2023-11-21T07:15:49;12.73;;;4.07;;
43807;SDS011;29438;50.664;10.098;2023-11-21T07:18:15;12.98;;;3.78;;
43807;SDS011;29438;50.664;10.098;2023-11-21T07:20:40;11.98;;;3.80;;
43807;SDS011;29438;50.664;10.098;2023-11-21T07:23:06;10.77;;;3.42;;
43807;SDS011;29438;50.664;10.098;2023-11-21T07:25:32;10.57;;;3.15;;
43807;SDS011;29438;50.664;10.098;2023-11-21T07:27:58;12.57;;;4.25;;
43807;SDS011;29438;50.664;10.098;2023-11-21T07:30:25;12.20;;;3.90;;
43807;SDS011;29438;50.664;10.098;2023-11-21T07:32:51;15.13;;;5.35;;
43807;SDS011;29438;50.664;10.098;2023-11-21T07:35:17;17.42;;;6.63;;
43807;SDS011;29438;50.664;10.098;2023-11-21T07:37:43;15.95;;;5.65;;
43807;SDS011;29438;50.664;10.098;2023-11-21T07:40:08;19.20;;;8.27;;
43807;SDS011;29438;50.664;10.098;2023-11-21T07:42:36;17.63;;;6.38;;
43807;SDS011;29438;50.664;10.098;2023-11-21T07:45:02;16.30;;;6.78;;
43807;SDS011;29438;50.664;10.098;2023-11-21T07:47:29;17.40;;;6.60;;
43807;SDS011;29438;50.664;10.098;2023-11-21T07:49:54;15.68;;;6.18;;
43807;SDS011;29438;50.664;10.098;2023-11-21T07:52:22;15.35;;;5.20;;
43807;SDS011;29438;50.664;10.098;2023-11-21T07:54:48;12.98;;;5.30;;
43807;SDS011;29438;50.664;10.098;2023-11-21T07:57:13;12.20;;;4.68;;
43807;SDS011;29438;50.664;10.098;2023-11-21T07:59:40;15.85;;;4.78;;
43807;SDS011;29438;50.664;10.098;2023-11-21T08:02:06;13.90;;;4.78;;
43807;SDS011;29438;50.664;10.098;2023-11-21T08:04:32;14.27;;;6.35;;
43807;SDS011;29438;50.664;10.098;2023-11-21T08:06:57;21.08;;;7.57;;
43807;SDS011;29438;50.664;10.098;2023-11-21T08:09:23;15.57;;;6.47;;
43807;SDS011;29438;50.664;10.098;2023-11-21T08:11:49;18.40;;;7.60;;
43807;SDS011;29438;50.664;10.098;2023-11-21T08:14:15;20.48;;;7.82;;
43807;SDS011;29438;50.664;10.098;2023-11-21T08:16:40;20.40;;;8.15;;
43807;SDS011;29438;50.664;10.098;2023-11-21T08:19:06;23.45;;;9.80;;
43807;SDS011;29438;50.664;10.098;2023-11-21T08:21:33;24.80;;;10.32;;
43807;SDS011;29438;50.664;10.098;2023-11-21T08:23:59;24.95;;;10.13;;
43807;SDS011;29438;50.664;10.098;2023-11-21T08:26:25;17.02;;;7.57;;
43807;SDS011;29438;50.664;10.098;2023-11-21T08:28:51;21.00;;;8.75;;
43807;SDS011;29438;50.664;10.098;2023-11-21T08:31:27;24.42;;;7.90;;
43807;SDS011;29438;50.664;10.098;2023-11-21T08:33:53;15.90;;;6.95;;
43807;SDS011;29438;50.664;10.098;2023-11-21T08:36:20;15.75;;;7.47;;
43807;SDS011;29438;50.664;10.098;2023-11-21T08:38:50;17.52;;;8.43;;
43807;SDS011;29438;50.664;10.098;2023-11-21T08:41:17;16.42;;;7.68;;
43807;SDS011;29438;50.664;10.098;2023-11-21T08:43:46;17.40;;;9.32;;
43807;SDS011;29438;50.664;10.098;2023-11-21T08:46:19;16.90;;;7.18;;
43807;SDS011;29438;50.664;10.098;2023-11-21T08:48:44;18.88;;;6.55;;
43807;SDS011;29438;50.664;10.098;2023-11-21T08:51:10;17.17;;;6.18;;
43807;SDS011;29438;50.664;10.098;2023-11-21T08:53:36;16.23;;;7.15;;
43807;SDS011;29438;50.664;10.098;2023-11-21T08:56:02;15.00;;;6.40;;
43807;SDS011;29438;50.664;10.098;2023-11-21T08:58:29;16.48;;;7.28;;
43807;SDS011;29438;50.664;10.098;2023-11-21T09:00:57;17.20;;;6.78;;
43807;SDS011;29438;50.664;10.098;2023-11-21T09:03:22;19.02;;;7.43;;
43807;SDS011;29438;50.664;10.098;2023-11-21T09:05:48;16.67;;;6.85;;
43807;SDS011;29438;50.664;10.098;2023-11-21T09:08:13;16.85;;;6.75;;
43807;SDS011;29438;50.664;10.098;2023-11-21T09:10:39;14.77;;;6.72;;
43807;SDS011;29438;50.664;10.098;2023-11-21T09:13:05;13.40;;;6.72;;
43807;SDS011;29438;50.664;10.098;2023-11-21T09:15:30;12.10;;;6.20;;
43807;SDS011;29438;50.664;10.098;2023-11-21T09:17:56;11.98;;;6.10;;
43807;SDS011;29438;50.664;10.098;2023-11-21T09:20:21;12.93;;;6.20;;
43807;SDS011;29438;50.664;10.098;2023-11-21T09:22:48;11.70;;;5.97;;
43807;SDS011;29438;50.664;10.098;2023-11-21T09:25:14;10.27;;;5.35;;
43807;SDS011;29438;50.664;10.098;2023-11-21T09:27:40;9.82;;;5.50;;
43807;SDS011;29438;50.664;10.098;2023-11-21T09:30:06;8.45;;;5.05;;
43807;SDS011;29438;50.664;10.098;2023-11-21T09:32:36;9.68;;;4.95;;
43807;SDS011;29438;50.664;10.098;2023-11-21T09:35:06;9.63;;;5.20;;
43807;SDS011;29438;50.664;10.098;2023-11-21T09:37:33;9.77;;;5.50;;
43807;SDS011;29438;50.664;10.098;2023-11-21T09:39:59;8.65;;;4.95;;
43807;SDS011;29438;50.664;10.098;2023-11-21T09:42:38;11.20;;;5.80;;
43807;SDS011;29438;50.664;10.098;2023-11-21T09:47:43;19.73;;;9.05;;
43807;SDS011;29438;50.664;10.098;2023-11-21T09:50:08;13.02;;;7.63;;
43807;SDS011;29438;50.664;10.098;2023-11-21T09:52:39;8.85;;;4.95;;
43807;SDS011;29438;50.664;10.098;2023-11-21T09:55:22;12.88;;;6.35;;
43807;SDS011;29438;50.664;10.098;2023-11-21T09:57:52;10.80;;;5.55;;
43807;SDS011;29438;50.664;10.098;2023-11-21T10:00:20;12.02;;;5.53;;
43807;SDS011;29438;50.664;10.098;2023-11-21T10:02:48;9.25;;;4.45;;
43807;SDS011;29438;50.664;10.098;2023-11-21T10:05:14;10.27;;;4.18;;
43807;SDS011;29438;50.664;10.098;2023-11-21T10:07:42;8.18;;;4.28;;
43807;SDS011;29438;50.664;10.098;2023-11-21T10:10:10;11.45;;;4.45;;
43807;SDS011;29438;50.664;10.098;2023-11-21T10:12:36;8.68;;;4.25;;
43807;SDS011;29438;50.664;10.098;2023-11-21T10:15:03;8.35;;;4.05;;
43807;SDS011;29438;50.664;10.098;2023-11-21T10:17:33;7.50;;;3.70;;
43807;SDS011;29438;50.664;10.098;2023-11-21T10:20:08;9.45;;;4.28;;
43807;SDS011;29438;50.664;10.098;2023-11-21T10:22:41;9.80;;;5.22;;
43807;SDS011;29438;50.664;10.098;2023-11-21T10:25:08;18.25;;;8.77;;
43807;SDS011;29438;50.664;10.098;2023-11-21T10:27:35;10.30;;;5.07;;
43807;SDS011;29438;50.664;10.098;2023-11-21T10:30:03;9.60;;;5.30;;
43807;SDS011;29438;50.664;10.098;2023-11-21T10:32:30;8.43;;;4.68;;
43807;SDS011;29438;50.664;10.098;2023-11-21T10:34:57;9.43;;;4.38;;
43807;SDS011;29438;50.664;10.098;2023-11-21T10:37:25;10.30;;;5.38;;
43807;SDS011;29438;50.664;10.098;2023-11-21T10:39:56;9.95;;;5.15;;
43807;SDS011;29438;50.664;10.098;2023-11-21T10:42:23;20.20;;;9.50;;
43807;SDS011;29438;50.664;10.098;2023-11-21T10:44:49;11.20;;;6.50;;
43807;SDS011;29438;50.664;10.098;2023-11-21T10:47:15;23.10;;;10.35;;
43807;SDS011;29438;50.664;10.098;2023-11-21T10:49:44;18.00;;;8.10;;
43807;SDS011;29438;50.664;10.098;2023-11-21T10:52:12;13.90;;;6.28;;
43807;SDS011;29438;50.664;10.098;2023-11-21T10:54:42;32.78;;;14.18;;
43807;SDS011;29438;50.664;10.098;2023-11-21T10:57:08;13.40;;;6.70;;
43807;SDS011;29438;50.664;10.098;2023-11-21T10:59:35;19.48;;;9.32;;
43807;SDS011;29438;50.664;10.098;2023-11-21T11:02:02;11.45;;;6.13;;
43807;SDS011;29438;50.664;10.098;2023-11-21T11:04:46;17.55;;;6.22;;
43807;SDS011;29438;50.664;10.098;2023-11-21T11:07:13;12.50;;;6.13;;
43807;SDS011;29438;50.664;10.098;2023-11-21T11:09:41;13.27;;;5.50;;
43807;SDS011;29438;50.664;10.098;2023-11-21T11:12:07;11.55;;;5.60;;
43807;SDS011;29438;50.664;10.098;2023-11-21T11:14:34;15.35;;;6.55;;
43807;SDS011;29438;50.664;10.098;2023-11-21T11:17:01;12.02;;;5.53;;
43807;SDS011;29438;50.664;10.098;2023-11-21T11:19:27;9.50;;;4.43;;
43807;SDS011;29438;50.664;10.098;2023-11-21T11:25:12;13.32;;;5.22;;
43807;SDS011;29438;50.664;10.098;2023-11-21T11:30:28;13.30;;;5.57;;
43807;SDS011;29438;50.664;10.098;2023-11-21T11:38:50;12.55;;;4.60;;
43807;SDS011;29438;50.664;10.098;2023-11-21T11:41:26;11.32;;;4.93;;
43807;SDS011;29438;50.664;10.098;2023-11-21T11:43:58;12.63;;;5.72;;
43807;SDS011;29438;50.664;10.098;2023-11-21T11:46:41;16.90;;;5.88;;
43807;SDS011;29438;50.664;10.098;2023-11-21T11:49:10;14.15;;;5.30;;
43807;SDS011;29438;50.664;10.098;2023-11-21T11:51:36;13.15;;;5.90;;
43807;SDS011;29438;50.664;10.098;2023-11-21T11:54:02;14.30;;;5.65;;
43807;SDS011;29438;50.664;10.098;2023-11-21T11:56:29;13.05;;;5.22;;
43807;SDS011;29438;50.664;10.098;2023-11-21T11:59:03;12.02;;;5.60;;
43807;SDS011;29438;50.664;10.098;2023-11-21T12:01:30;10.80;;;4.55;;
43807;SDS011;29438;50.664;10.098;2023-11-21T12:06:44;9.65;;;4.60;;
43807;SDS011;29438;50.664;10.098;2023-11-21T12:09:17;10.15;;;4.35;;
43807;SDS011;29438;50.664;10.098;2023-11-21T12:11:43;9.73;;;4.55;;
43807;SDS011;29438;50.664;10.098;2023-11-21T12:14:09;10.27;;;4.10;;
43807;SDS011;29438;50.664;10.098;2023-11-21T12:16:35;9.55;;;4.32;;
43807;SDS011;29438;50.664;10.098;2023-11-21T12:19:02;11.38;;;4.30;;
43807;SDS011;29438;50.664;10.098;2023-11-21T12:21:28;8.40;;;4.15;;
43807;SDS011;29438;50.664;10.098;2023-11-21T12:23:55;7.85;;;3.40;;
43807;SDS011;29438;50.664;10.098;2023-11-21T12:26:22;6.28;;;2.72;;
43807;SDS011;29438;50.664;10.098;2023-11-21T12:28:52;8.43;;;2.95;;
43807;SDS011;29438;50.664;10.098;2023-11-21T12:31:21;6.60;;;2.88;;
43807;SDS011;29438;50.664;10.098;2023-11-21T12:33:46;7.35;;;3.22;;
43807;SDS011;29438;50.664;10.098;2023-11-21T12:36:12;5.95;;;2.60;;
43807;SDS011;29438;50.664;10.098;2023-11-21T12:38:38;4.53;;;2.30;;
43807;SDS011;29438;50.664;10.098;2023-11-21T12:41:04;5.15;;;2.40;;
43807;SDS011;29438;50.664;10.098;2023-11-21T12:43:31;6.90;;;2.17;;
43807;SDS011;29438;50.664;10.098;2023-11-21T12:46:07;4.43;;;2.00;;
43807;SDS011;29438;50.664;10.098;2023-11-21T12:48:45;4.57;;;1.98;;
43807;SDS011;29438;50.664;10.098;2023-11-21T12:51:11;4.38;;;2.20;;
43807;SDS011;29438;50.664;10.098;2023-11-21T12:53:39;4.18;;;1.77;;
43807;SDS011;29438;50.664;10.098;2023-11-21T12:56:11;4.35;;;2.20;;
43807;SDS011;29438;50.664;10.098;2023-11-21T12:58:38;4.22;;;1.92;;
43807;SDS011;29438;50.664;10.098;2023-11-21T13:01:07;4.50;;;2.00;;
43807;SDS011;29438;50.664;10.098;2023-11-21T13:03:43;4.47;;;1.63;;
43807;SDS011;29438;50.664;10.098;2023-11-21T13:06:13;3.72;;;1.73;;
43807;SDS011;29438;50.664;10.098;2023-11-21T13:08:39;4.63;;;1.67;;
43807;SDS011;29438;50.664;10.098;2023-11-21T13:11:05;3.92;;;1.52;;
43807;SDS011;29438;50.664;10.098;2023-11-21T13:13:31;2.90;;;1.00;;
43807;SDS011;29438;50.664;10.098;2023-11-21T13:15:59;2.85;;;1.00;;
43807;SDS011;29438;50.664;10.098;2023-11-21T13:18:26;3.03;;;0.85;;
43807;SDS011;29438;50.664;10.098;2023-11-21T13:20:56;2.33;;;0.90;;
43807;SDS011;29438;50.664;10.098;2023-11-21T13:23:24;2.83;;;0.93;;
43807;SDS011;29438;50.664;10.098;2023-11-21T13:25:50;3.45;;;1.20;;
43807;SDS011;29438;50.664;10.098;2023-11-21T13:28:16;3.53;;;1.40;;
43807;SDS011;29438;50.664;10.098;2023-11-21T13:30:45;3.65;;;1.30;;
43807;SDS011;29438;50.664;10.098;2023-11-21T13:33:11;3.90;;;1.75;;
43807;SDS011;29438;50.664;10.098;2023-11-21T13:35:42;4.38;;;2.00;;
43807;SDS011;29438;50.664;10.098;2023-11-21T13:38:14;6.20;;;2.17;;
43807;SDS011;29438;50.664;10.098;2023-11-21T13:40:54;7.07;;;2.60;;
43807;SDS011;29438;50.664;10.098;2023-11-21T13:43:23;6.63;;;2.42;;
43807;SDS011;29438;50.664;10.098;2023-11-21T13:45:51;6.13;;;2.20;;
43807;SDS011;29438;50.664;10.098;2023-11-21T13:48:40;4.55;;;2.20;;
43807;SDS011;29438;50.664;10.098;2023-11-21T13:51:08;5.47;;;1.95;;
43807;SDS011;29438;50.664;10.098;2023-11-21T13:53:44;4.20;;;2.28;;
43807;SDS011;29438;50.664;10.098;2023-11-21T13:58:48;7.07;;;3.30;;
43807;SDS011;29438;50.664;10.098;2023-11-21T14:01:20;7.97;;;3.38;;
43807;SDS011;29438;50.664;10.098;2023-11-21T14:03:56;6.32;;;2.90;;
43807;SDS011;29438;50.664;10.098;2023-11-21T14:06:54;7.63;;;3.28;;
43807;SDS011;29438;50.664;10.098;2023-11-21T14:09:20;9.32;;;3.85;;
43807;SDS011;29438;50.664;10.098;2023-11-21T14:11:49;10.52;;;3.75;;
43807;SDS011;29438;50.664;10.098;2023-11-21T14:14:21;8.98;;;3.92;;
43807;SDS011;29438;50.664;10.098;2023-11-21T14:16:49;9.20;;;3.60;;
43807;SDS011;29438;50.664;10.098;2023-11-21T14:19:15;9.63;;;3.65;;
43807;SDS011;29438;50.664;10.098;2023-11-21T14:21:42;10.55;;;4.32;;
43807;SDS011;29438;50.664;10.098;2023-11-21T14:24:11;10.05;;;3.90;;
43807;SDS011;29438;50.664;10.098;2023-11-21T14:26:42;7.95;;;3.33;;
43807;SDS011;29438;50.664;10.098;2023-11-21T14:29:11;10.88;;;4.18;;
43807;SDS011;29438;50.664;10.098;2023-11-21T14:31:39;11.18;;;3.63;;
43807;SDS011;29438;50.664;10.098;2023-11-21T14:34:06;10.55;;;4.13;;
43807;SDS011;29438;50.664;10.098;2023-11-21T14:36:32;21.58;;;9.10;;
43807;SDS011;29438;50.664;10.098;2023-11-21T14:38:58;14.65;;;6.60;;
43807;SDS011;29438;50.664;10.098;2023-11-21T14:41:23;12.48;;;4.70;;
43807;SDS011;29438;50.664;10.098;2023-11-21T14:43:50;11.18;;;4.05;;
43807;SDS011;29438;50.664;10.098;2023-11-21T14:46:16;8.77;;;2.95;;
43807;SDS011;29438;50.664;10.098;2023-11-21T14:48:44;8.00;;;3.40;;